sensor_id;sensor_type;location;lat;lon;timestamp;P1;durP1;ratioP1;P2;durP2;ratioP2
62610;SDS011;48683;48.084;17.272;2024-03-08T00:00:31;33.17;;;20.30;;
62610;SDS011;48683;48.084;17.272;2024-03-08T00:02:58;36.00;;;22.75;;
62610;SDS011;48683;48.084;17.272;2024-03-08T00:05:23;39.10;;;21.85;;
62610;SDS011;48683;48.084;17.272;2024-03-08T00:07:49;38.23;;;23.87;;
62610;SDS011;48683;48.084;17.272;2024-03-08T00:10:14;37.97;;;21.93;;
62610;SDS011;48683;48.084;17.272;2024-03-08T00:12:42;37.13;;;22.48;;
62610;SDS011;48683;48.084;17.272;2024-03-08T00:15:12;39.63;;;22.42;;
62610;SDS011;48683;48.084;17.272;2024-03-08T00:17:39;39.47;;;23.35;;
62610;SDS011;48683;48.084;17.272;2024-03-08T00:20:05;37.45;;;22.42;;
62610;SDS011;48683;48.084;17.272;2024-03-08T00:22:33;43.85;;;23.95;;
62610;SDS011;48683;48.084;17.272;2024-03-08T00:24:58;38.47;;;22.98;;
62610;SDS011;48683;48.084;17.272;2024-03-08T00:27:23;40.80;;;23.17;;
62610;SDS011;48683;48.084;17.272;2024-03-08T00:29:49;40.63;;;22.05;;
62610;SDS011;48683;48.084;17.272;2024-03-08T00:32:14;42.30;;;24.07;;
62610;SDS011;48683;48.084;17.272;2024-03-08T00:34:40;40.83;;;23.63;;
62610;SDS011;48683;48.084;17.272;2024-03-08T00:37:05;39.10;;;23.60;;
62610;SDS011;48683;48.084;17.272;2024-03-08T00:39:30;42.77;;;23.20;;
62610;SDS011;48683;48.084;17.272;2024-03-08T00:41:55;41.15;;;23.05;;
62610;SDS011;48683;48.084;17.272;2024-03-08T00:44:20;36.03;;;21.83;;
62610;SDS011;48683;48.084;17.272;2024-03-08T00:46:46;39.60;;;23.50;;
62610;SDS011;48683;48.084;17.272;2024-03-08T00:49:11;38.40;;;23.40;;
62610;SDS011;48683;48.084;17.272;2024-03-08T00:51:37;39.67;;;22.90;;
62610;SDS011;48683;48.084;17.272;2024-03-08T00:54:02;41.03;;;23.47;;
62610;SDS011;48683;48.084;17.272;2024-03-08T00:56:27;37.97;;;22.23;;
62610;SDS011;48683;48.084;17.272;2024-03-08T00:58:53;40.07;;;22.87;;
62610;SDS011;48683;48.084;17.272;2024-03-08T01:01:18;36.90;;;22.25;;
62610;SDS011;48683;48.084;17.272;2024-03-08T01:03:44;40.10;;;23.60;;
62610;SDS011;48683;48.084;17.272;2024-03-08T01:06:09;39.10;;;22.88;;
62610;SDS011;48683;48.084;17.272;2024-03-08T01:08:34;39.03;;;22.97;;
62610;SDS011;48683;48.084;17.272;2024-03-08T01:10:59;37.95;;;23.00;;
62610;SDS011;48683;48.084;17.272;2024-03-08T01:13:25;36.10;;;22.30;;
62610;SDS011;48683;48.084;17.272;2024-03-08T01:15:50;41.28;;;24.02;;
62610;SDS011;48683;48.084;17.272;2024-03-08T01:18:15;40.08;;;23.08;;
62610;SDS011;48683;48.084;17.272;2024-03-08T01:20:40;39.07;;;22.30;;
62610;SDS011;48683;48.084;17.272;2024-03-08T01:23:06;40.10;;;23.13;;
62610;SDS011;48683;48.084;17.272;2024-03-08T01:25:32;38.15;;;21.52;;
62610;SDS011;48683;48.084;17.272;2024-03-08T01:27:58;40.20;;;23.30;;
62610;SDS011;48683;48.084;17.272;2024-03-08T01:30:23;42.20;;;23.83;;
62610;SDS011;48683;48.084;17.272;2024-03-08T01:32:48;38.83;;;22.47;;
62610;SDS011;48683;48.084;17.272;2024-03-08T01:35:13;35.70;;;22.38;;
62610;SDS011;48683;48.084;17.272;2024-03-08T01:37:39;38.67;;;22.43;;
62610;SDS011;48683;48.084;17.272;2024-03-08T01:40:04;37.37;;;23.27;;
62610;SDS011;48683;48.084;17.272;2024-03-08T01:42:29;38.33;;;22.15;;
62610;SDS011;48683;48.084;17.272;2024-03-08T01:44:54;38.93;;;22.33;;
62610;SDS011;48683;48.084;17.272;2024-03-08T01:47:20;38.93;;;22.70;;
62610;SDS011;48683;48.084;17.272;2024-03-08T01:49:48;39.88;;;23.88;;
62610;SDS011;48683;48.084;17.272;2024-03-08T01:52:13;39.90;;;22.17;;
62610;SDS011;48683;48.084;17.272;2024-03-08T01:54:39;38.35;;;22.92;;
62610;SDS011;48683;48.084;17.272;2024-03-08T01:57:06;38.37;;;21.60;;
62610;SDS011;48683;48.084;17.272;2024-03-08T01:59:31;39.05;;;22.30;;
62610;SDS011;48683;48.084;17.272;2024-03-08T02:01:56;35.88;;;21.42;;
62610;SDS011;48683;48.084;17.272;2024-03-08T02:06:49;39.03;;;22.57;;
62610;SDS011;48683;48.084;17.272;2024-03-08T02:09:14;41.03;;;22.00;;
62610;SDS011;48683;48.084;17.272;2024-03-08T02:11:40;44.30;;;23.10;;
62610;SDS011;48683;48.084;17.272;2024-03-08T02:14:06;42.65;;;23.02;;
62610;SDS011;48683;48.084;17.272;2024-03-08T02:16:31;40.22;;;21.95;;
62610;SDS011;48683;48.084;17.272;2024-03-08T02:18:56;42.10;;;23.50;;
62610;SDS011;48683;48.084;17.272;2024-03-08T02:21:22;41.33;;;23.55;;
62610;SDS011;48683;48.084;17.272;2024-03-08T02:23:47;36.55;;;22.50;;
62610;SDS011;48683;48.084;17.272;2024-03-08T02:26:12;42.67;;;23.75;;
62610;SDS011;48683;48.084;17.272;2024-03-08T02:28:37;39.17;;;22.40;;
62610;SDS011;48683;48.084;17.272;2024-03-08T02:31:03;40.90;;;24.10;;
62610;SDS011;48683;48.084;17.272;2024-03-08T02:33:33;39.08;;;22.98;;
62610;SDS011;48683;48.084;17.272;2024-03-08T02:35:58;41.25;;;24.83;;
62610;SDS011;48683;48.084;17.272;2024-03-08T02:38:23;39.57;;;23.23;;
62610;SDS011;48683;48.084;17.272;2024-03-08T02:40:50;38.05;;;22.98;;
62610;SDS011;48683;48.084;17.272;2024-03-08T02:43:16;42.83;;;23.73;;
62610;SDS011;48683;48.084;17.272;2024-03-08T02:45:42;37.97;;;22.38;;
62610;SDS011;48683;48.084;17.272;2024-03-08T02:48:08;37.60;;;22.93;;
62610;SDS011;48683;48.084;17.272;2024-03-08T02:50:34;41.17;;;24.53;;
62610;SDS011;48683;48.084;17.272;2024-03-08T02:53:00;43.25;;;24.73;;
62610;SDS011;48683;48.084;17.272;2024-03-08T02:55:25;40.28;;;23.65;;
62610;SDS011;48683;48.084;17.272;2024-03-08T02:57:50;44.28;;;24.70;;
62610;SDS011;48683;48.084;17.272;2024-03-08T03:00:16;44.40;;;24.13;;
62610;SDS011;48683;48.084;17.272;2024-03-08T03:02:41;42.53;;;25.65;;
62610;SDS011;48683;48.084;17.272;2024-03-08T03:05:07;43.00;;;24.05;;
62610;SDS011;48683;48.084;17.272;2024-03-08T03:07:34;43.70;;;24.52;;
62610;SDS011;48683;48.084;17.272;2024-03-08T03:10:00;38.65;;;23.60;;
62610;SDS011;48683;48.084;17.272;2024-03-08T03:12:26;43.15;;;24.23;;
62610;SDS011;48683;48.084;17.272;2024-03-08T03:14:51;48.17;;;26.77;;
62610;SDS011;48683;48.084;17.272;2024-03-08T03:17:17;42.92;;;24.58;;
62610;SDS011;48683;48.084;17.272;2024-03-08T03:19:42;43.43;;;24.60;;
62610;SDS011;48683;48.084;17.272;2024-03-08T03:22:07;47.30;;;25.67;;
62610;SDS011;48683;48.084;17.272;2024-03-08T03:24:34;40.70;;;24.05;;
62610;SDS011;48683;48.084;17.272;2024-03-08T03:27:01;46.27;;;25.70;;
62610;SDS011;48683;48.084;17.272;2024-03-08T03:29:26;47.63;;;26.33;;
62610;SDS011;48683;48.084;17.272;2024-03-08T03:31:51;42.50;;;24.83;;
62610;SDS011;48683;48.084;17.272;2024-03-08T03:34:17;43.53;;;25.95;;
62610;SDS011;48683;48.084;17.272;2024-03-08T03:36:43;43.95;;;25.88;;
62610;SDS011;48683;48.084;17.272;2024-03-08T03:39:10;45.00;;;25.17;;
62610;SDS011;48683;48.084;17.272;2024-03-08T03:41:41;45.63;;;25.08;;
62610;SDS011;48683;48.084;17.272;2024-03-08T03:44:06;48.78;;;25.73;;
62610;SDS011;48683;48.084;17.272;2024-03-08T03:46:32;44.50;;;26.02;;
62610;SDS011;48683;48.084;17.272;2024-03-08T03:48:57;45.47;;;25.92;;
62610;SDS011;48683;48.084;17.272;2024-03-08T03:51:23;43.03;;;26.00;;
62610;SDS011;48683;48.084;17.272;2024-03-08T03:53:48;47.83;;;26.20;;
62610;SDS011;48683;48.084;17.272;2024-03-08T03:56:13;48.88;;;26.23;;
62610;SDS011;48683;48.084;17.272;2024-03-08T03:58:38;51.10;;;26.80;;
62610;SDS011;48683;48.084;17.272;2024-03-08T04:01:04;43.78;;;26.40;;
62610;SDS011;48683;48.084;17.272;2024-03-08T04:03:30;47.20;;;26.40;;
62610;SDS011;48683;48.084;17.272;2024-03-08T04:05:55;45.87;;;25.63;;
62610;SDS011;48683;48.084;17.272;2024-03-08T04:08:20;45.67;;;25.63;;
62610;SDS011;48683;48.084;17.272;2024-03-08T04:10:45;46.45;;;27.23;;
62610;SDS011;48683;48.084;17.272;2024-03-08T04:13:11;45.83;;;25.97;;
62610;SDS011;48683;48.084;17.272;2024-03-08T04:15:36;51.40;;;27.23;;
62610;SDS011;48683;48.084;17.272;2024-03-08T04:18:02;47.00;;;26.42;;
62610;SDS011;48683;48.084;17.272;2024-03-08T04:20:28;45.33;;;25.08;;
62610;SDS011;48683;48.084;17.272;2024-03-08T04:22:53;45.10;;;26.37;;
62610;SDS011;48683;48.084;17.272;2024-03-08T04:25:18;46.07;;;24.17;;
62610;SDS011;48683;48.084;17.272;2024-03-08T04:27:43;49.67;;;25.33;;
62610;SDS011;48683;48.084;17.272;2024-03-08T04:30:09;44.38;;;25.35;;
62610;SDS011;48683;48.084;17.272;2024-03-08T04:32:35;47.33;;;24.88;;
62610;SDS011;48683;48.084;17.272;2024-03-08T04:35:00;43.95;;;25.48;;
62610;SDS011;48683;48.084;17.272;2024-03-08T04:37:28;49.03;;;26.48;;
62610;SDS011;48683;48.084;17.272;2024-03-08T04:39:57;47.90;;;26.05;;
62610;SDS011;48683;48.084;17.272;2024-03-08T04:42:22;44.83;;;26.00;;
62610;SDS011;48683;48.084;17.272;2024-03-08T04:44:47;41.13;;;25.02;;
62610;SDS011;48683;48.084;17.272;2024-03-08T04:47:13;48.92;;;27.10;;
62610;SDS011;48683;48.084;17.272;2024-03-08T04:49:38;48.20;;;26.30;;
62610;SDS011;48683;48.084;17.272;2024-03-08T04:52:03;53.50;;;26.83;;
62610;SDS011;48683;48.084;17.272;2024-03-08T04:54:29;48.15;;;26.30;;
62610;SDS011;48683;48.084;17.272;2024-03-08T04:56:54;45.33;;;25.75;;
62610;SDS011;48683;48.084;17.272;2024-03-08T04:59:20;42.97;;;24.98;;
62610;SDS011;48683;48.084;17.272;2024-03-08T05:01:46;45.47;;;25.90;;
62610;SDS011;48683;48.084;17.272;2024-03-08T05:04:12;44.47;;;25.10;;
62610;SDS011;48683;48.084;17.272;2024-03-08T05:06:37;45.40;;;25.97;;
62610;SDS011;48683;48.084;17.272;2024-03-08T05:09:02;46.70;;;26.75;;
62610;SDS011;48683;48.084;17.272;2024-03-08T05:11:45;48.80;;;27.25;;
62610;SDS011;48683;48.084;17.272;2024-03-08T05:14:11;50.75;;;27.40;;
62610;SDS011;48683;48.084;17.272;2024-03-08T05:16:38;46.85;;;26.85;;
62610;SDS011;48683;48.084;17.272;2024-03-08T05:19:04;47.65;;;26.35;;
62610;SDS011;48683;48.084;17.272;2024-03-08T05:21:30;52.80;;;27.42;;
62610;SDS011;48683;48.084;17.272;2024-03-08T05:23:55;48.77;;;26.70;;
62610;SDS011;48683;48.084;17.272;2024-03-08T05:26:20;50.20;;;27.83;;
62610;SDS011;48683;48.084;17.272;2024-03-08T05:28:47;48.72;;;26.42;;
62610;SDS011;48683;48.084;17.272;2024-03-08T05:31:18;48.60;;;25.53;;
62610;SDS011;48683;48.084;17.272;2024-03-08T05:33:43;48.17;;;26.27;;
62610;SDS011;48683;48.084;17.272;2024-03-08T05:36:08;45.53;;;26.63;;
62610;SDS011;48683;48.084;17.272;2024-03-08T05:38:34;48.63;;;26.30;;
62610;SDS011;48683;48.084;17.272;2024-03-08T05:40:59;44.83;;;25.63;;
62610;SDS011;48683;48.084;17.272;2024-03-08T05:43:24;49.90;;;26.20;;
62610;SDS011;48683;48.084;17.272;2024-03-08T05:45:49;47.50;;;26.75;;
62610;SDS011;48683;48.084;17.272;2024-03-08T05:48:15;45.80;;;26.48;;
62610;SDS011;48683;48.084;17.272;2024-03-08T05:50:40;57.28;;;28.27;;
62610;SDS011;48683;48.084;17.272;2024-03-08T05:53:05;43.50;;;25.73;;
62610;SDS011;48683;48.084;17.272;2024-03-08T05:55:34;42.40;;;25.17;;
62610;SDS011;48683;48.084;17.272;2024-03-08T05:58:00;54.22;;;26.48;;
62610;SDS011;48683;48.084;17.272;2024-03-08T06:00:26;48.28;;;26.17;;
62610;SDS011;48683;48.084;17.272;2024-03-08T06:02:51;46.53;;;25.88;;
62610;SDS011;48683;48.084;17.272;2024-03-08T06:05:16;48.60;;;26.98;;
62610;SDS011;48683;48.084;17.272;2024-03-08T06:07:41;51.42;;;26.88;;
62610;SDS011;48683;48.084;17.272;2024-03-08T06:10:08;51.88;;;26.50;;
62610;SDS011;48683;48.084;17.272;2024-03-08T06:12:35;47.40;;;26.40;;
62610;SDS011;48683;48.084;17.272;2024-03-08T06:15:05;48.75;;;27.83;;
62610;SDS011;48683;48.084;17.272;2024-03-08T06:17:30;55.08;;;27.45;;
62610;SDS011;48683;48.084;17.272;2024-03-08T06:19:55;47.38;;;26.45;;
62610;SDS011;48683;48.084;17.272;2024-03-08T06:22:20;52.03;;;27.67;;
62610;SDS011;48683;48.084;17.272;2024-03-08T06:24:46;44.73;;;26.27;;
62610;SDS011;48683;48.084;17.272;2024-03-08T06:27:12;47.97;;;26.83;;
62610;SDS011;48683;48.084;17.272;2024-03-08T06:29:37;48.70;;;26.37;;
62610;SDS011;48683;48.084;17.272;2024-03-08T06:32:02;48.17;;;26.40;;
62610;SDS011;48683;48.084;17.272;2024-03-08T06:34:27;48.60;;;26.80;;
62610;SDS011;48683;48.084;17.272;2024-03-08T06:36:53;48.80;;;27.27;;
62610;SDS011;48683;48.084;17.272;2024-03-08T06:39:25;54.22;;;26.45;;
62610;SDS011;48683;48.084;17.272;2024-03-08T06:41:50;52.43;;;27.47;;
62610;SDS011;48683;48.084;17.272;2024-03-08T06:44:16;50.22;;;26.98;;
62610;SDS011;48683;48.084;17.272;2024-03-08T06:46:41;55.05;;;28.17;;
62610;SDS011;48683;48.084;17.272;2024-03-08T06:49:06;47.40;;;26.93;;
62610;SDS011;48683;48.084;17.272;2024-03-08T06:51:32;51.33;;;26.85;;
62610;SDS011;48683;48.084;17.272;2024-03-08T06:53:57;59.00;;;28.63;;
62610;SDS011;48683;48.084;17.272;2024-03-08T06:56:23;56.83;;;29.20;;
62610;SDS011;48683;48.084;17.272;2024-03-08T06:58:48;50.03;;;26.47;;
62610;SDS011;48683;48.084;17.272;2024-03-08T07:01:14;62.50;;;29.95;;
62610;SDS011;48683;48.084;17.272;2024-03-08T07:03:43;65.13;;;30.58;;
62610;SDS011;48683;48.084;17.272;2024-03-08T07:06:10;59.00;;;29.33;;
62610;SDS011;48683;48.084;17.272;2024-03-08T07:08:35;58.80;;;29.02;;
62610;SDS011;48683;48.084;17.272;2024-03-08T07:11:00;62.97;;;31.90;;
62610;SDS011;48683;48.084;17.272;2024-03-08T07:13:25;54.20;;;28.15;;
62610;SDS011;48683;48.084;17.272;2024-03-08T07:15:53;60.03;;;28.80;;
62610;SDS011;48683;48.084;17.272;2024-03-08T07:18:18;63.47;;;29.27;;
62610;SDS011;48683;48.084;17.272;2024-03-08T07:20:43;50.63;;;27.57;;
62610;SDS011;48683;48.084;17.272;2024-03-08T07:23:08;57.92;;;28.30;;
62610;SDS011;48683;48.084;17.272;2024-03-08T07:25:35;52.80;;;26.95;;
62610;SDS011;48683;48.084;17.272;2024-03-08T07:28:00;58.83;;;27.65;;
62610;SDS011;48683;48.084;17.272;2024-03-08T07:30:26;53.97;;;26.37;;
62610;SDS011;48683;48.084;17.272;2024-03-08T07:33:20;55.85;;;27.95;;
62610;SDS011;48683;48.084;17.272;2024-03-08T07:35:47;59.63;;;28.60;;
62610;SDS011;48683;48.084;17.272;2024-03-08T07:38:14;55.88;;;28.83;;
62610;SDS011;48683;48.084;17.272;2024-03-08T07:40:40;59.33;;;31.58;;
62610;SDS011;48683;48.084;17.272;2024-03-08T07:43:09;53.15;;;29.60;;
62610;SDS011;48683;48.084;17.272;2024-03-08T07:45:35;49.28;;;26.73;;
62610;SDS011;48683;48.084;17.272;2024-03-08T07:48:00;49.70;;;25.90;;
62610;SDS011;48683;48.084;17.272;2024-03-08T07:50:27;44.70;;;25.35;;
62610;SDS011;48683;48.084;17.272;2024-03-08T07:52:52;52.20;;;26.63;;
62610;SDS011;48683;48.084;17.272;2024-03-08T07:55:17;45.58;;;24.63;;
62610;SDS011;48683;48.084;17.272;2024-03-08T07:57:42;44.63;;;24.17;;
62610;SDS011;48683;48.084;17.272;2024-03-08T08:00:08;41.60;;;23.50;;
62610;SDS011;48683;48.084;17.272;2024-03-08T08:02:34;38.70;;;23.35;;
62610;SDS011;48683;48.084;17.272;2024-03-08T08:05:00;37.87;;;22.37;;
62610;SDS011;48683;48.084;17.272;2024-03-08T08:07:25;38.50;;;21.73;;
62610;SDS011;48683;48.084;17.272;2024-03-08T08:09:52;35.50;;;21.47;;
62610;SDS011;48683;48.084;17.272;2024-03-08T08:12:17;37.97;;;21.52;;
62610;SDS011;48683;48.084;17.272;2024-03-08T08:14:42;39.23;;;22.27;;
62610;SDS011;48683;48.084;17.272;2024-03-08T08:17:07;35.40;;;21.50;;
62610;SDS011;48683;48.084;17.272;2024-03-08T08:19:34;33.47;;;20.80;;
62610;SDS011;48683;48.084;17.272;2024-03-08T08:22:00;37.05;;;21.17;;
62610;SDS011;48683;48.084;17.272;2024-03-08T08:24:25;36.15;;;21.75;;
62610;SDS011;48683;48.084;17.272;2024-03-08T08:26:51;33.45;;;19.73;;
62610;SDS011;48683;48.084;17.272;2024-03-08T08:29:16;36.92;;;20.88;;
62610;SDS011;48683;48.084;17.272;2024-03-08T08:31:42;40.23;;;22.93;;
62610;SDS011;48683;48.084;17.272;2024-03-08T08:34:09;33.72;;;19.52;;
62610;SDS011;48683;48.084;17.272;2024-03-08T08:36:34;31.58;;;20.15;;
62610;SDS011;48683;48.084;17.272;2024-03-08T08:38:59;32.93;;;19.27;;
62610;SDS011;48683;48.084;17.272;2024-03-08T08:41:24;34.03;;;20.05;;
62610;SDS011;48683;48.084;17.272;2024-03-08T08:43:50;28.85;;;18.85;;
62610;SDS011;48683;48.084;17.272;2024-03-08T08:46:18;32.27;;;20.00;;
62610;SDS011;48683;48.084;17.272;2024-03-08T08:48:44;32.75;;;19.30;;
62610;SDS011;48683;48.084;17.272;2024-03-08T08:51:10;31.58;;;20.05;;
62610;SDS011;48683;48.084;17.272;2024-03-08T08:53:38;29.20;;;17.67;;
62610;SDS011;48683;48.084;17.272;2024-03-08T08:56:05;29.60;;;18.70;;
62610;SDS011;48683;48.084;17.272;2024-03-08T08:58:32;27.40;;;17.92;;
62610;SDS011;48683;48.084;17.272;2024-03-08T09:00:58;28.47;;;18.23;;
62610;SDS011;48683;48.084;17.272;2024-03-08T09:03:24;29.13;;;18.55;;
62610;SDS011;48683;48.084;17.272;2024-03-08T09:05:50;26.23;;;16.27;;
62610;SDS011;48683;48.084;17.272;2024-03-08T09:08:15;27.73;;;16.57;;
62610;SDS011;48683;48.084;17.272;2024-03-08T09:10:40;29.07;;;17.10;;
62610;SDS011;48683;48.084;17.272;2024-03-08T09:13:05;24.95;;;16.25;;
62610;SDS011;48683;48.084;17.272;2024-03-08T09:15:31;28.52;;;16.92;;
62610;SDS011;48683;48.084;17.272;2024-03-08T09:17:56;25.40;;;15.73;;
62610;SDS011;48683;48.084;17.272;2024-03-08T09:20:21;27.23;;;17.13;;
62610;SDS011;48683;48.084;17.272;2024-03-08T09:22:46;30.33;;;16.87;;
62610;SDS011;48683;48.084;17.272;2024-03-08T09:25:12;25.90;;;15.80;;
62610;SDS011;48683;48.084;17.272;2024-03-08T09:27:37;26.97;;;15.90;;
62610;SDS011;48683;48.084;17.272;2024-03-08T09:32:30;23.95;;;14.20;;
62610;SDS011;48683;48.084;17.272;2024-03-08T09:34:55;26.67;;;15.77;;
62610;SDS011;48683;48.084;17.272;2024-03-08T09:37:21;28.60;;;15.38;;
62610;SDS011;48683;48.084;17.272;2024-03-08T09:39:46;28.87;;;15.90;;
62610;SDS011;48683;48.084;17.272;2024-03-08T09:42:11;26.37;;;15.17;;
62610;SDS011;48683;48.084;17.272;2024-03-08T09:44:43;23.42;;;14.95;;
62610;SDS011;48683;48.084;17.272;2024-03-08T09:47:08;24.08;;;15.82;;
62610;SDS011;48683;48.084;17.272;2024-03-08T09:49:34;24.88;;;15.93;;
62610;SDS011;48683;48.084;17.272;2024-03-08T09:51:59;26.37;;;16.20;;
62610;SDS011;48683;48.084;17.272;2024-03-08T09:54:25;26.90;;;16.03;;
62610;SDS011;48683;48.084;17.272;2024-03-08T09:56:51;26.45;;;16.08;;
62610;SDS011;48683;48.084;17.272;2024-03-08T09:59:17;25.02;;;16.30;;
62610;SDS011;48683;48.084;17.272;2024-03-08T10:01:48;25.92;;;15.65;;
62610;SDS011;48683;48.084;17.272;2024-03-08T10:04:13;27.42;;;16.25;;
62610;SDS011;48683;48.084;17.272;2024-03-08T10:06:39;27.47;;;17.30;;
62610;SDS011;48683;48.084;17.272;2024-03-08T10:09:04;23.85;;;15.80;;
62610;SDS011;48683;48.084;17.272;2024-03-08T10:11:32;25.52;;;15.90;;
62610;SDS011;48683;48.084;17.272;2024-03-08T10:13:57;28.23;;;17.05;;
62610;SDS011;48683;48.084;17.272;2024-03-08T10:16:25;29.77;;;16.95;;
62610;SDS011;48683;48.084;17.272;2024-03-08T10:18:50;30.77;;;17.43;;
62610;SDS011;48683;48.084;17.272;2024-03-08T10:21:17;24.42;;;15.90;;
62610;SDS011;48683;48.084;17.272;2024-03-08T10:23:42;23.13;;;15.30;;
62610;SDS011;48683;48.084;17.272;2024-03-08T10:26:10;23.45;;;16.10;;
62610;SDS011;48683;48.084;17.272;2024-03-08T10:28:37;29.13;;;18.05;;
62610;SDS011;48683;48.084;17.272;2024-03-08T10:31:03;26.52;;;16.77;;
62610;SDS011;48683;48.084;17.272;2024-03-08T10:33:29;26.88;;;17.65;;
62610;SDS011;48683;48.084;17.272;2024-03-08T10:35:54;27.23;;;17.27;;
62610;SDS011;48683;48.084;17.272;2024-03-08T10:38:20;25.65;;;16.60;;
62610;SDS011;48683;48.084;17.272;2024-03-08T10:40:47;26.17;;;16.10;;
62610;SDS011;48683;48.084;17.272;2024-03-08T10:43:24;27.63;;;17.55;;
62610;SDS011;48683;48.084;17.272;2024-03-08T10:45:50;26.73;;;16.35;;
62610;SDS011;48683;48.084;17.272;2024-03-08T10:48:24;30.38;;;17.80;;
62610;SDS011;48683;48.084;17.272;2024-03-08T10:50:53;29.45;;;17.80;;
62610;SDS011;48683;48.084;17.272;2024-03-08T10:53:18;24.55;;;16.70;;
62610;SDS011;48683;48.084;17.272;2024-03-08T10:55:46;21.30;;;14.45;;
62610;SDS011;48683;48.084;17.272;2024-03-08T10:58:11;22.65;;;15.13;;
62610;SDS011;48683;48.084;17.272;2024-03-08T11:00:36;22.73;;;15.47;;
62610;SDS011;48683;48.084;17.272;2024-03-08T11:03:02;22.27;;;14.93;;
62610;SDS011;48683;48.084;17.272;2024-03-08T11:05:38;24.03;;;14.93;;
62610;SDS011;48683;48.084;17.272;2024-03-08T11:08:24;23.73;;;14.73;;
62610;SDS011;48683;48.084;17.272;2024-03-08T11:10:49;20.13;;;13.73;;
62610;SDS011;48683;48.084;17.272;2024-03-08T11:16:02;25.33;;;16.02;;
62610;SDS011;48683;48.084;17.272;2024-03-08T11:18:31;22.75;;;14.98;;
62610;SDS011;48683;48.084;17.272;2024-03-08T11:20:56;25.50;;;14.90;;
62610;SDS011;48683;48.084;17.272;2024-03-08T11:23:22;23.45;;;16.40;;
62610;SDS011;48683;48.084;17.272;2024-03-08T11:25:48;22.92;;;14.45;;
62610;SDS011;48683;48.084;17.272;2024-03-08T11:33:29;22.17;;;15.83;;
62610;SDS011;48683;48.084;17.272;2024-03-08T11:36:02;23.48;;;15.57;;
62610;SDS011;48683;48.084;17.272;2024-03-08T11:38:28;22.40;;;14.93;;
62610;SDS011;48683;48.084;17.272;2024-03-08T11:40:56;22.13;;;15.25;;
62610;SDS011;48683;48.084;17.272;2024-03-08T11:43:21;23.17;;;15.73;;
62610;SDS011;48683;48.084;17.272;2024-03-08T11:45:47;24.17;;;16.92;;
62610;SDS011;48683;48.084;17.272;2024-03-08T11:48:12;20.73;;;15.07;;
62610;SDS011;48683;48.084;17.272;2024-03-08T11:50:38;21.77;;;15.32;;
62610;SDS011;48683;48.084;17.272;2024-03-08T11:53:03;24.47;;;15.33;;
62610;SDS011;48683;48.084;17.272;2024-03-08T11:55:29;24.52;;;16.25;;
62610;SDS011;48683;48.084;17.272;2024-03-08T11:58:03;26.58;;;16.98;;
62610;SDS011;48683;48.084;17.272;2024-03-08T12:00:29;22.58;;;14.75;;
62610;SDS011;48683;48.084;17.272;2024-03-08T12:03:03;23.63;;;15.60;;
62610;SDS011;48683;48.084;17.272;2024-03-08T12:05:29;22.75;;;15.63;;
62610;SDS011;48683;48.084;17.272;2024-03-08T12:07:56;23.98;;;15.48;;
62610;SDS011;48683;48.084;17.272;2024-03-08T12:10:22;22.10;;;14.65;;
62610;SDS011;48683;48.084;17.272;2024-03-08T12:12:51;19.30;;;12.25;;
62610;SDS011;48683;48.084;17.272;2024-03-08T12:15:17;16.48;;;11.98;;
62610;SDS011;48683;48.084;17.272;2024-03-08T12:17:43;17.27;;;12.00;;
62610;SDS011;48683;48.084;17.272;2024-03-08T12:20:12;17.02;;;12.32;;
62610;SDS011;48683;48.084;17.272;2024-03-08T12:22:42;17.05;;;12.07;;
62610;SDS011;48683;48.084;17.272;2024-03-08T12:25:07;18.00;;;11.60;;
62610;SDS011;48683;48.084;17.272;2024-03-08T12:27:35;17.73;;;11.95;;
62610;SDS011;48683;48.084;17.272;2024-03-08T12:30:14;16.35;;;12.00;;
62610;SDS011;48683;48.084;17.272;2024-03-08T12:32:40;16.13;;;12.40;;
62610;SDS011;48683;48.084;17.272;2024-03-08T12:35:07;17.85;;;12.93;;
62610;SDS011;48683;48.084;17.272;2024-03-08T12:37:35;17.23;;;12.80;;
62610;SDS011;48683;48.084;17.272;2024-03-08T12:40:00;17.60;;;12.38;;
62610;SDS011;48683;48.084;17.272;2024-03-08T12:42:25;16.20;;;12.37;;
62610;SDS011;48683;48.084;17.272;2024-03-08T12:44:50;17.07;;;12.10;;
62610;SDS011;48683;48.084;17.272;2024-03-08T12:47:16;17.27;;;12.55;;
62610;SDS011;48683;48.084;17.272;2024-03-08T12:49:41;15.05;;;11.25;;
62610;SDS011;48683;48.084;17.272;2024-03-08T12:52:08;15.37;;;11.33;;
62610;SDS011;48683;48.084;17.272;2024-03-08T12:54:34;16.38;;;11.63;;
62610;SDS011;48683;48.084;17.272;2024-03-08T12:56:59;16.30;;;11.40;;
62610;SDS011;48683;48.084;17.272;2024-03-08T12:59:24;17.73;;;12.53;;
62610;SDS011;48683;48.084;17.272;2024-03-08T13:01:50;17.95;;;12.30;;
62610;SDS011;48683;48.084;17.272;2024-03-08T13:04:17;18.92;;;11.30;;
62610;SDS011;48683;48.084;17.272;2024-03-08T13:06:43;15.98;;;12.27;;
62610;SDS011;48683;48.084;17.272;2024-03-08T13:09:11;14.50;;;10.70;;
62610;SDS011;48683;48.084;17.272;2024-03-08T13:11:36;15.60;;;11.90;;
62610;SDS011;48683;48.084;17.272;2024-03-08T13:14:02;16.50;;;11.50;;
62610;SDS011;48683;48.084;17.272;2024-03-08T13:16:28;16.80;;;11.88;;
62610;SDS011;48683;48.084;17.272;2024-03-08T13:18:54;17.25;;;12.27;;
62610;SDS011;48683;48.084;17.272;2024-03-08T13:21:21;16.30;;;11.27;;
62610;SDS011;48683;48.084;17.272;2024-03-08T13:23:49;15.38;;;11.18;;
62610;SDS011;48683;48.084;17.272;2024-03-08T13:26:15;16.90;;;11.60;;
62610;SDS011;48683;48.084;17.272;2024-03-08T13:28:43;18.10;;;11.43;;
62610;SDS011;48683;48.084;17.272;2024-03-08T13:31:08;14.68;;;11.05;;
62610;SDS011;48683;48.084;17.272;2024-03-08T13:33:37;15.07;;;10.82;;
62610;SDS011;48683;48.084;17.272;2024-03-08T13:36:04;13.75;;;10.65;;
62610;SDS011;48683;48.084;17.272;2024-03-08T13:40:58;15.32;;;10.77;;
62610;SDS011;48683;48.084;17.272;2024-03-08T13:43:23;14.82;;;10.23;;
62610;SDS011;48683;48.084;17.272;2024-03-08T13:45:48;15.07;;;10.67;;
62610;SDS011;48683;48.084;17.272;2024-03-08T13:48:14;14.18;;;10.50;;
62610;SDS011;48683;48.084;17.272;2024-03-08T13:50:39;15.10;;;10.80;;
62610;SDS011;48683;48.084;17.272;2024-03-08T13:53:05;14.10;;;10.67;;
62610;SDS011;48683;48.084;17.272;2024-03-08T13:55:30;13.03;;;10.23;;
62610;SDS011;48683;48.084;17.272;2024-03-08T13:57:55;17.35;;;11.07;;
62610;SDS011;48683;48.084;17.272;2024-03-08T14:00:22;13.60;;;10.25;;
62610;SDS011;48683;48.084;17.272;2024-03-08T14:02:50;14.35;;;10.80;;
62610;SDS011;48683;48.084;17.272;2024-03-08T14:05:16;12.80;;;10.30;;
62610;SDS011;48683;48.084;17.272;2024-03-08T14:07:42;13.73;;;10.25;;
62610;SDS011;48683;48.084;17.272;2024-03-08T14:10:08;14.07;;;10.23;;
62610;SDS011;48683;48.084;17.272;2024-03-08T14:12:35;12.38;;;9.88;;
62610;SDS011;48683;48.084;17.272;2024-03-08T14:15:00;13.93;;;10.57;;
62610;SDS011;48683;48.084;17.272;2024-03-08T14:17:25;12.93;;;10.10;;